createdAt,value
2022-12-05T00:00:37.812Z,23.20
2022-12-05T00:03:07.971Z,23.48
2022-12-05T00:05:42.374Z,25.38
2022-12-05T00:08:09.909Z,25.55
2022-12-05T00:10:38.306Z,25.23
2022-12-05T00:13:08.733Z,21.85
2022-12-05T00:15:40.815Z,21.73
2022-12-05T00:18:10.614Z,20.67
2022-12-05T00:20:37.902Z,21.35
2022-12-05T00:23:05.346Z,18.50
2022-12-05T00:25:36.511Z,25.55
2022-12-05T00:28:03.888Z,25.20
2022-12-05T00:30:31.129Z,24.63
2022-12-05T00:32:59.286Z,24.70
2022-12-05T00:35:26.469Z,24.35
2022-12-05T00:37:54.159Z,24.50
2022-12-05T00:40:21.396Z,23.63
2022-12-05T00:42:52.307Z,23.52
2022-12-05T00:45:20.060Z,25.50
2022-12-05T00:47:47.368Z,23.50
2022-12-05T00:50:14.727Z,22.90
2022-12-05T00:52:42.294Z,23.70
2022-12-05T00:55:13.752Z,22.48
2022-12-05T00:57:41.958Z,19.88
2022-12-05T01:00:12.848Z,20.35
2022-12-05T01:02:45.646Z,23.63
2022-12-05T01:05:16.416Z,22.00
2022-12-05T01:07:43.753Z,22.52
2022-12-05T01:10:13.748Z,22.05
2022-12-05T01:12:40.888Z,23.35
2022-12-05T01:15:09.423Z,23.05
2022-12-05T01:17:36.593Z,22.80
2022-12-05T01:20:04.597Z,22.92
2022-12-05T01:22:31.793Z,22.40
2022-12-05T01:24:59.052Z,24.30
2022-12-05T01:27:26.332Z,21.65
2022-12-05T01:29:53.724Z,22.08
2022-12-05T01:32:21.059Z,22.38
2022-12-05T01:34:48.531Z,22.42
2022-12-05T01:37:18.488Z,22.67
2022-12-05T01:39:48.232Z,21.27
2022-12-05T01:42:15.664Z,22.05
2022-12-05T01:44:42.734Z,25.33
2022-12-05T01:47:10.113Z,22.50
2022-12-05T01:49:41.961Z,22.67
2022-12-05T01:52:20.592Z,22.17
2022-12-05T01:54:51.089Z,20.58
2022-12-05T01:57:19.010Z,18.98
2022-12-05T01:59:56.229Z,21.92
2022-12-05T02:02:24.391Z,19.85
2022-12-05T02:05:03.570Z,18.45
2022-12-05T02:07:32.814Z,20.27
2022-12-05T02:10:00.953Z,21.17
2022-12-05T02:12:28.611Z,21.70
2022-12-05T02:15:38.155Z,20.13
2022-12-05T02:18:32.791Z,20.35
2022-12-05T02:21:37.635Z,20.25
2022-12-05T02:24:34.570Z,21.45
2022-12-05T02:27:29.639Z,19.92
2022-12-05T02:30:20.349Z,19.70
2022-12-05T02:33:20.188Z,19.90
2022-12-05T02:36:07.481Z,21.35
2022-12-05T02:39:30.057Z,16.08
2022-12-05T02:42:39.722Z,18.45
2022-12-05T02:45:14.371Z,19.40
2022-12-05T02:47:50.201Z,19.90
2022-12-05T02:50:28.485Z,17.50
2022-12-05T02:53:01.003Z,19.98
2022-12-05T02:55:31.114Z,20.13
2022-12-05T02:58:03.461Z,20.55
2022-12-05T03:00:30.761Z,21.95
2022-12-05T03:03:02.779Z,19.30
2022-12-05T03:08:04.668Z,22.52
2022-12-05T03:10:36.799Z,18.52
2022-12-05T03:13:18.178Z,18.58
2022-12-05T03:15:53.762Z,15.90
2022-12-05T03:18:34.862Z,19.88
2022-12-05T03:21:30.363Z,19.52
2022-12-05T03:24:06.857Z,21.13
2022-12-05T03:27:21.156Z,20.10
2022-12-05T03:29:59.288Z,18.30
2022-12-05T03:32:45.783Z,17.55
2022-12-05T03:35:39.794Z,17.15
2022-12-05T03:38:51.191Z,20.23
2022-12-05T03:41:53.726Z,19.13
2022-12-05T03:45:06.148Z,17.33
2022-12-05T03:47:45.387Z,19.00
2022-12-05T03:50:29.329Z,15.75
2022-12-05T03:53:20.703Z,18.92
2022-12-05T03:55:59.139Z,17.05
2022-12-05T03:58:36.707Z,16.55
2022-12-05T04:01:08.294Z,18.67
2022-12-05T04:04:00.912Z,19.40
2022-12-05T04:06:35.173Z,19.42
2022-12-05T04:09:16.999Z,21.40
2022-12-05T04:11:52.018Z,19.75
2022-12-05T04:14:28.847Z,19.27
2022-12-05T04:17:12.326Z,17.08
2022-12-05T04:20:13.818Z,19.15
2022-12-05T04:22:42.520Z,18.20
2022-12-05T04:25:32.043Z,22.40
2022-12-05T04:28:30.050Z,28.98
2022-12-05T04:31:08.030Z,19.98
2022-12-05T04:33:56.759Z,19.30
2022-12-05T04:36:31.620Z,19.13
2022-12-05T04:39:26.158Z,18.85
2022-12-05T04:42:26.652Z,16.60
2022-12-05T04:45:00.289Z,18.48
2022-12-05T04:47:33.104Z,15.60
2022-12-05T04:50:02.235Z,14.88
2022-12-05T04:52:31.182Z,14.27
2022-12-05T04:55:20.786Z,17.90
2022-12-05T04:58:07.981Z,17.67
2022-12-05T05:00:50.096Z,21.38
2022-12-05T05:03:56.610Z,19.63
2022-12-05T05:06:24.023Z,22.13
2022-12-05T05:08:57.558Z,19.60
2022-12-05T05:11:32.179Z,20.35
2022-12-05T05:13:59.996Z,19.02
2022-12-05T05:16:34.707Z,21.55
2022-12-05T05:19:03.159Z,19.15
2022-12-05T05:21:35.876Z,20.33
2022-12-05T05:24:15.697Z,21.48
2022-12-05T05:26:45.990Z,20.88
2022-12-05T05:29:15.496Z,22.13
2022-12-05T05:31:43.277Z,23.80
2022-12-05T05:34:16.255Z,22.35
2022-12-05T05:36:44.336Z,22.48
2022-12-05T05:39:15.880Z,22.65
2022-12-05T05:41:44.408Z,19.02
2022-12-05T05:44:11.761Z,17.60
2022-12-05T05:46:39.088Z,17.73
2022-12-05T05:49:06.475Z,20.73
2022-12-05T05:51:33.770Z,21.50
2022-12-05T05:54:01.087Z,21.40
2022-12-05T05:56:29.216Z,20.67
2022-12-05T05:59:08.447Z,19.40
2022-12-05T06:01:35.558Z,19.92
2022-12-05T06:04:08.163Z,19.35
2022-12-05T06:06:35.566Z,17.50
2022-12-05T06:09:02.786Z,22.58
2022-12-05T06:11:30.494Z,24.67
2022-12-05T06:14:03.084Z,19.85
2022-12-05T06:16:32.097Z,26.58
2022-12-05T06:18:59.822Z,30.10
2022-12-05T06:21:27.686Z,26.92
2022-12-05T06:23:55.720Z,27.45
2022-12-05T06:26:24.015Z,25.17
2022-12-05T06:28:53.571Z,28.35
2022-12-05T06:31:23.870Z,30.70
2022-12-05T06:33:51.183Z,25.55
2022-12-05T06:36:22.025Z,21.83
2022-12-05T06:38:52.253Z,19.35
2022-12-05T06:41:25.448Z,20.70
2022-12-05T06:44:02.172Z,22.88
2022-12-05T06:46:30.185Z,21.45
2022-12-05T06:48:59.087Z,24.15
2022-12-05T06:51:29.410Z,24.45
2022-12-05T06:53:57.267Z,25.73
2022-12-05T06:56:24.354Z,26.55
2022-12-05T06:58:53.622Z,28.05
2022-12-05T07:01:38.818Z,27.30
2022-12-05T07:04:24.132Z,29.77
2022-12-05T07:06:56.408Z,29.63
2022-12-05T07:12:14.646Z,24.25
2022-12-05T07:14:48.083Z,23.63
2022-12-05T07:17:17.468Z,29.02
2022-12-05T07:19:45.303Z,27.52
2022-12-05T07:22:15.970Z,27.80
2022-12-05T07:24:44.870Z,28.13
2022-12-05T07:27:15.383Z,29.38
2022-12-05T07:29:42.607Z,34.22
2022-12-05T07:32:12.266Z,26.23
2022-12-05T07:34:42.476Z,23.13
2022-12-05T07:37:13.928Z,25.33
2022-12-05T07:39:41.103Z,22.63
2022-12-05T07:42:08.263Z,28.98
2022-12-05T07:44:39.234Z,23.30
2022-12-05T07:47:06.414Z,26.50
2022-12-05T07:49:33.694Z,28.05
2022-12-05T07:52:00.764Z,27.75
2022-12-05T07:54:27.885Z,24.77
2022-12-05T07:56:55.130Z,24.02
2022-12-05T07:59:22.283Z,22.92
2022-12-05T08:01:49.859Z,22.90
2022-12-05T08:04:17.165Z,25.55
2022-12-05T08:06:44.839Z,25.60
2022-12-05T08:09:16.749Z,23.00
2022-12-05T08:11:51.054Z,20.05
2022-12-05T08:14:22.044Z,24.23
2022-12-05T08:16:49.418Z,24.08
2022-12-05T08:19:17.261Z,24.65
2022-12-05T08:21:44.668Z,26.30
2022-12-05T08:24:13.696Z,23.45
2022-12-05T08:26:43.507Z,24.45
2022-12-05T08:29:14.663Z,23.42
2022-12-05T08:31:49.034Z,26.13
2022-12-05T08:34:19.582Z,26.83
2022-12-05T08:36:47.605Z,27.10
2022-12-05T08:39:18.033Z,26.70
2022-12-05T08:41:47.420Z,30.92
2022-12-05T08:44:18.821Z,32.55
2022-12-05T08:46:49.429Z,28.98
2022-12-05T08:49:19.547Z,27.67
2022-12-05T08:51:49.250Z,25.95
2022-12-05T08:54:17.352Z,38.22
2022-12-05T08:56:44.727Z,27.20
2022-12-05T08:59:12.098Z,27.80
2022-12-05T09:01:40.669Z,26.80
2022-12-05T09:04:10.762Z,29.52
2022-12-05T09:06:40.433Z,25.88
2022-12-05T09:09:11.797Z,26.35
2022-12-05T09:11:46.751Z,25.40
2022-12-05T09:14:15.124Z,25.35
2022-12-05T09:16:46.021Z,24.50
2022-12-05T09:19:18.300Z,28.35
2022-12-05T09:24:14.161Z,26.33
2022-12-05T09:26:44.248Z,24.23
2022-12-05T09:29:18.008Z,26.38
2022-12-05T09:31:50.148Z,29.55
2022-12-05T09:34:18.606Z,33.50
2022-12-05T09:36:46.441Z,27.50
2022-12-05T09:39:14.063Z,26.60
2022-12-05T09:42:21.969Z,26.05
2022-12-05T09:45:32.227Z,24.77
2022-12-05T09:48:15.717Z,27.73
2022-12-05T09:50:50.027Z,26.70
2022-12-05T09:53:33.574Z,28.42
2022-12-05T09:56:16.208Z,29.65
2022-12-05T09:58:52.553Z,18.90
2022-12-05T10:02:14.159Z,25.48
2022-12-05T10:05:02.697Z,21.27
2022-12-05T10:08:03.288Z,25.35
2022-12-05T10:10:45.794Z,23.48
2022-12-05T10:13:28.383Z,25.10
2022-12-05T10:16:21.910Z,22.65
2022-12-05T10:19:06.615Z,25.33
2022-12-05T10:21:52.903Z,24.17
2022-12-05T10:24:33.957Z,27.10
2022-12-05T10:27:08.853Z,24.25
2022-12-05T10:29:49.262Z,25.27
2022-12-05T10:32:30.523Z,24.58
2022-12-05T10:35:19.778Z,24.67
2022-12-05T10:37:54.518Z,26.52
2022-12-05T10:40:22.596Z,22.83
2022-12-05T10:42:52.678Z,20.80
2022-12-05T10:45:23.906Z,20.98
2022-12-05T10:47:59.087Z,21.87
2022-12-05T10:50:30.684Z,23.13
2022-12-05T10:53:00.539Z,19.50
2022-12-05T10:55:59.972Z,22.10
2022-12-05T10:58:33.665Z,21.70
2022-12-05T11:01:15.986Z,25.08
2022-12-05T11:03:44.138Z,20.60
2022-12-05T11:06:44.031Z,21.77
2022-12-05T11:09:31.031Z,21.45
2022-12-05T11:12:09.238Z,22.70
2022-12-05T11:14:36.546Z,20.92
2022-12-05T11:17:06.863Z,24.02
2022-12-05T11:19:40.100Z,20.30
2022-12-05T11:22:08.282Z,22.45
2022-12-05T11:24:39.610Z,21.48
2022-12-05T11:27:32.183Z,24.53
2022-12-05T11:32:34.022Z,23.77
2022-12-05T11:35:13.259Z,23.63
2022-12-05T11:38:02.124Z,20.70
2022-12-05T11:40:57.791Z,25.15
2022-12-05T11:43:30.642Z,22.13
2022-12-05T11:46:31.783Z,18.63
2022-12-05T11:50:06.071Z,20.27
2022-12-05T11:52:58.111Z,20.90
2022-12-05T11:55:34.533Z,19.50
2022-12-05T11:58:35.136Z,25.05
2022-12-05T12:01:33.756Z,23.63
2022-12-05T12:04:25.677Z,24.95
2022-12-05T12:07:46.085Z,20.73
2022-12-05T12:10:50.862Z,26.98
2022-12-05T12:13:26.796Z,23.13
2022-12-05T12:16:22.590Z,22.17
2022-12-05T12:19:21.864Z,23.33
2022-12-05T12:22:32.835Z,25.05
2022-12-05T12:25:21.196Z,24.05
2022-12-05T12:28:08.735Z,23.73
2022-12-05T12:31:22.465Z,26.40
2022-12-05T12:34:26.685Z,27.08
2022-12-05T12:37:19.812Z,25.65
2022-12-05T12:40:19.213Z,26.85
2022-12-05T12:43:08.067Z,21.45
2022-12-05T12:46:08.088Z,23.10
2022-12-05T12:49:35.096Z,26.75
2022-12-05T12:52:14.647Z,25.20
2022-12-05T12:55:32.061Z,27.38
2022-12-05T12:58:27.584Z,24.23
2022-12-05T13:01:03.648Z,25.27
2022-12-05T13:03:51.719Z,24.30
2022-12-05T13:06:31.257Z,25.98
2022-12-05T13:09:12.565Z,24.73
2022-12-05T13:11:44.534Z,22.88
2022-12-05T13:14:24.987Z,22.85
2022-12-05T13:16:54.833Z,26.73
2022-12-05T13:19:53.954Z,32.03
2022-12-05T13:22:26.678Z,23.20
2022-12-05T13:24:55.282Z,23.08
2022-12-05T13:27:27.534Z,23.05
2022-12-05T13:30:02.698Z,25.20
2022-12-05T13:32:43.851Z,23.65
2022-12-05T13:35:49.685Z,27.73
2022-12-05T13:38:50.466Z,26.35
2022-12-05T13:41:36.725Z,21.65
2022-12-05T13:44:12.537Z,22.48
2022-12-05T13:46:43.848Z,29.00
2022-12-05T13:49:48.166Z,27.23
2022-12-05T13:52:30.296Z,24.73
2022-12-05T13:55:35.622Z,27.05
2022-12-05T13:58:23.635Z,28.70
2022-12-05T14:00:52.358Z,26.00
2022-12-05T14:03:36.857Z,29.15
2022-12-05T14:06:06.622Z,33.42
2022-12-05T14:08:39.909Z,31.20
2022-12-05T14:11:13.713Z,31.98
2022-12-05T14:13:43.714Z,34.85
2022-12-05T14:16:31.658Z,28.80
2022-12-05T14:19:34.394Z,31.65
2022-12-05T14:22:38.570Z,32.78
2022-12-05T14:25:57.392Z,30.27
2022-12-05T14:28:58.792Z,30.40
2022-12-05T14:32:04.692Z,29.00
2022-12-05T14:34:36.614Z,31.63
2022-12-05T14:37:15.612Z,29.58
2022-12-05T14:39:49.111Z,32.05
2022-12-05T14:42:51.299Z,31.65
2022-12-05T14:45:50.946Z,40.97
2022-12-05T14:48:17.986Z,28.90
2022-12-05T14:50:51.077Z,32.00
2022-12-05T14:53:21.243Z,36.45
2022-12-05T14:55:54.300Z,35.90
2022-12-05T14:58:52.011Z,32.83
2022-12-05T15:01:54.934Z,40.55
2022-12-05T15:05:12.287Z,30.42
2022-12-05T15:07:40.505Z,33.03
2022-12-05T15:10:14.152Z,31.17
2022-12-05T15:12:53.738Z,28.45
2022-12-05T15:15:36.674Z,28.85
2022-12-05T15:18:31.952Z,27.45
2022-12-05T15:21:14.757Z,29.65
2022-12-05T15:23:46.461Z,30.50
2022-12-05T15:29:21.176Z,27.77
2022-12-05T15:31:55.313Z,30.98
2022-12-05T15:34:53.140Z,29.05
2022-12-05T15:37:35.111Z,28.38
2022-12-05T15:40:17.985Z,28.85
2022-12-05T15:43:24.352Z,29.10
2022-12-05T15:46:06.282Z,31.40
2022-12-05T15:48:33.462Z,29.85
2022-12-05T15:51:03.187Z,30.98
2022-12-05T15:53:45.014Z,29.50
2022-12-05T15:56:39.489Z,32.72
2022-12-05T15:59:18.711Z,30.50
2022-12-05T16:02:23.715Z,31.55
2022-12-05T16:04:57.155Z,30.73
2022-12-05T16:07:34.034Z,31.65
2022-12-05T16:10:02.710Z,34.40
2022-12-05T16:12:42.483Z,35.92
2022-12-05T16:15:24.214Z,34.83
2022-12-05T16:18:01.662Z,36.63
2022-12-05T16:20:33.185Z,40.30
2022-12-05T16:23:30.394Z,39.75
2022-12-05T16:26:21.426Z,34.85
2022-12-05T16:29:00.969Z,38.50
2022-12-05T16:31:30.097Z,38.85
2022-12-05T16:34:14.538Z,33.55
2022-12-05T16:36:54.487Z,32.03
2022-12-05T16:39:23.595Z,31.88
2022-12-05T16:41:51.588Z,31.08
2022-12-05T16:44:28.598Z,31.40
2022-12-05T16:47:00.498Z,29.73
2022-12-05T16:49:30.862Z,33.80
2022-12-05T16:52:14.638Z,32.72
2022-12-05T16:54:46.066Z,32.20
2022-12-05T16:57:16.402Z,31.98
2022-12-05T16:59:45.844Z,32.13
2022-12-05T17:02:19.400Z,33.55
2022-12-05T17:04:47.259Z,34.90
2022-12-05T17:07:14.727Z,37.60
2022-12-05T17:09:44.388Z,35.60
2022-12-05T17:12:20.820Z,35.90
2022-12-05T17:14:50.370Z,36.08
2022-12-05T17:17:19.291Z,36.13
2022-12-05T17:19:46.710Z,37.83
2022-12-05T17:22:16.136Z,35.00
2022-12-05T17:24:43.957Z,30.60
2022-12-05T17:27:14.668Z,32.75
2022-12-05T17:29:44.685Z,33.13
2022-12-05T17:32:13.429Z,33.55
2022-12-05T17:34:42.956Z,32.78
2022-12-05T17:37:10.197Z,30.25
2022-12-05T17:39:37.454Z,30.90
2022-12-05T17:42:04.834Z,31.52
2022-12-05T17:44:32.136Z,31.85
2022-12-05T17:47:07.770Z,29.95
2022-12-05T17:49:36.012Z,31.05
2022-12-05T17:54:54.178Z,29.00
2022-12-05T17:57:22.590Z,31.13
2022-12-05T17:59:49.981Z,30.85
2022-12-05T18:02:20.273Z,33.53
2022-12-05T18:04:47.621Z,29.00
2022-12-05T18:07:17.379Z,29.35
2022-12-05T18:09:44.656Z,29.50
2022-12-05T18:12:11.979Z,30.23
2022-12-05T18:14:42.227Z,29.10
2022-12-05T18:17:11.892Z,28.08
2022-12-05T18:19:39.182Z,27.92
2022-12-05T18:22:08.884Z,28.52
2022-12-05T18:24:36.053Z,30.25
2022-12-05T18:27:05.523Z,29.50
2022-12-05T18:29:32.838Z,29.33
2022-12-05T18:32:00.354Z,28.42
2022-12-05T18:34:27.644Z,29.48
2022-12-05T18:36:57.463Z,30.67
2022-12-05T18:39:24.902Z,29.00
2022-12-05T18:41:52.592Z,36.58
2022-12-05T18:44:21.118Z,42.22
2022-12-05T18:46:48.773Z,38.40
2022-12-05T18:49:16.163Z,36.58
2022-12-05T18:51:43.396Z,42.22
2022-12-05T18:54:10.905Z,43.42
2022-12-05T18:56:40.904Z,34.30
2022-12-05T18:59:14.673Z,37.40
2022-12-05T19:01:45.999Z,35.55
2022-12-05T19:04:17.223Z,40.00
2022-12-05T19:07:02.053Z,37.97
2022-12-05T19:09:34.016Z,33.20
2022-12-05T19:12:01.769Z,34.20
2022-12-05T19:14:33.193Z,31.80
2022-12-05T19:17:00.948Z,33.35
2022-12-05T19:19:29.429Z,34.03
2022-12-05T19:21:59.586Z,32.08
2022-12-05T19:24:27.160Z,32.60
2022-12-05T19:26:54.414Z,31.30
2022-12-05T19:29:21.849Z,31.58
2022-12-05T19:31:49.857Z,32.75
2022-12-05T19:34:17.070Z,31.75
2022-12-05T19:36:46.365Z,32.13
2022-12-05T19:39:20.693Z,29.83
2022-12-05T19:41:49.381Z,28.95
2022-12-05T19:44:17.449Z,31.27
2022-12-05T19:46:47.387Z,63.95
2022-12-05T19:49:19.016Z,47.78
2022-12-05T19:51:48.625Z,48.38
2022-12-05T19:54:22.226Z,39.72
2022-12-05T19:56:58.537Z,32.47
2022-12-05T19:59:28.526Z,38.33
2022-12-05T20:01:58.130Z,37.25
2022-12-05T20:04:25.822Z,36.53
2022-12-05T20:06:53.185Z,33.90
2022-12-05T20:09:23.044Z,35.08
2022-12-05T20:11:55.544Z,33.50
2022-12-05T20:14:28.905Z,32.80
2022-12-05T20:16:59.059Z,32.95
2022-12-05T20:19:29.984Z,31.25
2022-12-05T20:21:58.875Z,31.58
2022-12-05T20:24:26.128Z,33.00
2022-12-05T20:26:54.998Z,42.08
2022-12-05T20:29:22.391Z,33.88
2022-12-05T20:31:53.214Z,37.65
2022-12-05T20:34:20.852Z,38.17
2022-12-05T20:36:48.219Z,33.95
2022-12-05T20:39:20.006Z,34.83
2022-12-05T20:41:52.725Z,33.17
2022-12-05T20:44:20.053Z,38.72
2022-12-05T20:46:50.689Z,38.13
2022-12-05T20:49:18.714Z,34.92
2022-12-05T20:51:50.352Z,38.63
2022-12-05T20:54:21.351Z,36.13
2022-12-05T20:56:56.176Z,39.33
2022-12-05T20:59:32.635Z,38.42
2022-12-05T21:02:02.872Z,34.72
2022-12-05T21:04:40.041Z,35.35
2022-12-05T21:07:08.829Z,35.13
2022-12-05T21:09:39.341Z,36.40
2022-12-05T21:12:07.386Z,37.08
2022-12-05T21:14:42.427Z,41.10
2022-12-05T21:17:27.937Z,39.53
2022-12-05T21:20:01.857Z,41.63
2022-12-05T21:22:36.263Z,44.17
2022-12-05T21:25:14.758Z,36.17
2022-12-05T21:27:55.181Z,39.05
2022-12-05T21:30:30.052Z,44.08
2022-12-05T21:33:06.520Z,38.05
2022-12-05T21:35:46.602Z,41.58
2022-12-05T21:38:49.536Z,44.33
2022-12-05T21:41:26.069Z,38.28
2022-12-05T21:44:03.277Z,40.95
2022-12-05T21:46:38.109Z,40.13
2022-12-05T21:49:24.402Z,39.63
2022-12-05T21:52:30.715Z,40.53
2022-12-05T21:55:16.701Z,40.45
2022-12-05T21:57:48.379Z,40.78
2022-12-05T22:00:18.327Z,40.42
2022-12-05T22:02:46.677Z,39.38
2022-12-05T22:05:20.313Z,40.00
2022-12-05T22:07:54.392Z,44.60
2022-12-05T22:10:28.253Z,45.92
2022-12-05T22:12:57.795Z,42.10
2022-12-05T22:15:31.441Z,40.55
2022-12-05T22:18:01.686Z,40.05
2022-12-05T22:20:30.259Z,40.35
2022-12-05T22:23:01.031Z,39.83
2022-12-05T22:25:32.171Z,41.28
2022-12-05T22:28:07.612Z,43.95
2022-12-05T22:30:39.414Z,45.67
2022-12-05T22:33:10.584Z,45.10
2022-12-05T22:35:41.521Z,43.15
2022-12-05T22:38:12.111Z,44.08
2022-12-05T22:40:39.964Z,43.92
2022-12-05T22:43:07.855Z,44.30
2022-12-05T22:45:36.725Z,44.55
2022-12-05T22:48:05.111Z,47.42
2022-12-05T22:50:32.904Z,45.67
2022-12-05T22:53:05.498Z,44.72
2022-12-05T22:55:43.149Z,44.42
2022-12-05T22:58:16.847Z,41.15
2022-12-05T23:00:45.702Z,41.75
2022-12-05T23:03:19.699Z,41.70
2022-12-05T23:05:48.889Z,43.08
2022-12-05T23:08:22.422Z,41.00
2022-12-05T23:10:50.642Z,43.38
2022-12-05T23:13:18.679Z,41.63
2022-12-05T23:15:46.452Z,43.22
2022-12-05T23:18:16.187Z,42.50
2022-12-05T23:20:47.234Z,42.72
2022-12-05T23:23:15.194Z,40.70
2022-12-05T23:25:45.834Z,43.10
2022-12-05T23:28:14.005Z,42.65
2022-12-05T23:30:45.179Z,39.33
2022-12-05T23:33:14.412Z,42.05
2022-12-05T23:35:45.699Z,44.53
2022-12-05T23:38:13.924Z,40.87
2022-12-05T23:40:41.845Z,40.80
2022-12-05T23:43:09.661Z,40.58
2022-12-05T23:45:42.162Z,40.33
2022-12-05T23:48:09.845Z,40.53
2022-12-05T23:50:37.871Z,43.45
2022-12-05T23:53:08.895Z,41.67
2022-12-05T23:55:37.263Z,39.03
2022-12-05T23:58:05.480Z,40.03
